Time;durP1;ratioP1;P1;durP2;ratioP2;P2;SDS_P1;SDS_P2;PMS_P1;PMS_P2;Temp;Humidity;BMP_temperature;BMP_pressure;BME280_temperature;BME280_humidity;BME280_pressure;Samples;Min_cycle;Max_cycle;Signal;HPM_P1;HPM_P2
2024/03/08 00:00:33;;;;;;;4.50;3.27;;;22.50;55.60;;;;;;5075738;28;20436;-84
2024/03/08 00:03:00;;;;;;;4.07;3.67;;;22.50;55.60;;;;;;5075377;28;20480;-82
2024/03/08 00:05:27;;;;;;;4.70;3.30;;;22.50;55.70;;;;;;5075319;28;20436;-83
2024/03/08 00:07:56;;;;;;;4.47;3.73;;;22.50;55.60;;;;;;5074865;28;20503;-81
2024/03/08 00:10:23;;;;;;;4.10;3.47;;;22.50;55.60;;;;;;5075005;28;20490;-92
2024/03/08 00:12:51;;;;;;;3.60;3.10;;;22.50;55.60;;;;;;5075235;28;20432;-82
2024/03/08 00:15:18;;;;;;;3.60;3.30;;;22.50;55.70;;;;;;5074666;28;20932;-91
2024/03/08 00:17:45;;;;;;;3.77;3.47;;;22.50;55.70;;;;;;5074536;28;20452;-85
2024/03/08 00:20:13;;;;;;;5.00;3.80;;;22.40;55.60;;;;;;5074404;28;20455;-82
2024/03/08 00:22:40;;;;;;;3.87;3.40;;;22.40;55.60;;;;;;5074988;28;20436;-82
2024/03/08 00:25:09;;;;;;;4.80;3.80;;;22.40;55.60;;;;;;5074439;28;20474;-81
2024/03/08 00:27:36;;;;;;;4.13;3.47;;;22.40;55.60;;;;;;5074674;28;20486;-83
2024/03/08 00:30:03;;;;;;;3.83;3.43;;;22.40;55.70;;;;;;5074750;28;20451;-90
2024/03/08 00:32:31;;;;;;;4.00;3.57;;;22.40;55.60;;;;;;5074267;28;20441;-82
2024/03/08 00:34:58;;;;;;;4.03;3.63;;;22.40;55.70;;;;;;5074209;28;20494;-81
2024/03/08 00:37:25;;;;;;;3.87;3.40;;;22.40;55.70;;;;;;5074136;28;20439;-93
2024/03/08 00:39:53;;;;;;;4.50;3.37;;;22.40;55.60;;;;;;5073705;28;20535;-82
2024/03/08 00:42:21;;;;;;;3.80;3.40;;;22.40;55.60;;;;;;5073743;28;20444;-82
2024/03/08 00:44:51;;;;;;;3.67;3.37;;;22.40;55.50;;;;;;5073598;28;20476;-88
2024/03/08 00:47:17;;;;;;;5.33;3.57;;;22.40;55.50;;;;;;5074425;28;20436;-82
2024/03/08 00:49:44;;;;;;;3.87;3.23;;;22.40;55.50;;;;;;5074504;28;20433;-82
2024/03/08 00:52:11;;;;;;;3.73;3.43;;;22.40;55.50;;;;;;5073978;28;20436;-82
2024/03/08 00:54:37;;;;;;;4.07;3.20;;;22.40;55.40;;;;;;5073615;28;20924;-82
2024/03/08 00:57:04;;;;;;;4.03;3.43;;;22.40;55.40;;;;;;5073391;28;20440;-82
2024/03/08 00:59:34;;;;;;;3.80;3.40;;;22.40;55.40;;;;;;5073618;28;20886;-82
2024/03/08 01:02:01;;;;;;;4.03;3.63;;;22.40;55.40;;;;;;5073521;28;20957;-83
2024/03/08 01:04:28;;;;;;;4.77;3.20;;;22.40;55.30;;;;;;5073455;28;20436;-82
2024/03/08 01:06:56;;;;;;;4.27;3.83;;;22.40;55.30;;;;;;5073521;28;20432;-82
2024/03/08 01:09:23;;;;;;;5.13;3.50;;;22.40;55.60;;;;;;5073338;28;20464;-82
2024/03/08 01:11:49;;;;;;;3.87;3.47;;;22.50;55.30;;;;;;5073314;28;20443;-82
2024/03/08 01:14:16;;;;;;;4.03;3.63;;;22.50;55.30;;;;;;5073204;28;20436;-81
2024/03/08 01:16:44;;;;;;;5.37;3.00;;;22.50;55.30;;;;;;5073017;28;20437;-82
2024/03/08 01:19:11;;;;;;;4.67;3.97;;;22.50;55.20;;;;;;5073182;28;20488;-81
2024/03/08 01:21:38;;;;;;;3.30;3.00;;;22.50;55.20;;;;;;5073867;28;20444;-81
2024/03/08 01:24:05;;;;;;;3.37;3.07;;;22.50;55.10;;;;;;5079384;28;20436;-80
2024/03/08 01:26:34;;;;;;;6.53;3.83;;;22.50;55.10;;;;;;5083672;28;20444;-81
2024/03/08 01:29:01;;;;;;;4.00;3.60;;;22.50;55.10;;;;;;5084535;28;20456;-81
2024/03/08 01:31:29;;;;;;;4.13;3.50;;;22.50;55.10;;;;;;5073731;28;20439;-80
2024/03/08 01:33:58;;;;;;;4.43;3.30;;;22.50;55.10;;;;;;5073594;28;20436;-81
2024/03/08 01:36:25;;;;;;;3.70;2.97;;;22.50;55.10;;;;;;5073197;28;20535;-82
2024/03/08 01:38:52;;;;;;;3.80;3.10;;;22.50;55.10;;;;;;5072854;28;20484;-81
2024/03/08 01:41:19;;;;;;;3.50;3.20;;;22.50;55.00;;;;;;5072768;28;20931;-81
2024/03/08 01:43:46;;;;;;;3.60;3.27;;;22.50;55.00;;;;;;5072945;28;20567;-92
2024/03/08 01:46:21;;;;;;;3.57;3.27;;;22.60;55.10;;;;;;5077332;28;20436;-93
2024/03/08 01:48:50;;;;;;;3.70;3.00;;;22.50;55.00;;;;;;5077007;28;20537;-81
2024/03/08 01:51:19;;;;;;;3.70;3.30;;;22.50;55.00;;;;;;5077373;28;20442;-81
2024/03/08 01:53:49;;;;;;;3.43;3.13;;;22.50;55.00;;;;;;5077567;28;20436;-81
2024/03/08 01:56:15;;;;;;;3.53;3.00;;;22.50;54.90;;;;;;5077075;28;20435;-81
2024/03/08 01:58:44;;;;;;;3.70;3.40;;;22.50;54.90;;;;;;5076582;28;20472;-81
2024/03/08 02:01:14;;;;;;;4.27;3.80;;;22.50;54.80;;;;;;5077011;28;20436;-82
2024/03/08 02:03:43;;;;;;;3.83;3.43;;;22.50;54.90;;;;;;5076782;28;20450;-82
2024/03/08 02:06:10;;;;;;;4.70;3.83;;;22.50;55.00;;;;;;5076335;28;20451;-82
2024/03/08 02:08:39;;;;;;;3.97;3.37;;;22.50;54.90;;;;;;5076395;28;20440;-81
2024/03/08 02:11:06;;;;;;;3.67;3.27;;;22.50;54.90;;;;;;5076689;28;20437;-91
2024/03/08 02:13:34;;;;;;;5.03;4.43;;;22.50;54.90;;;;;;5076221;28;20446;-81
2024/03/08 02:16:01;;;;;;;4.03;3.63;;;22.50;54.90;;;;;;5076497;28;20475;-86
2024/03/08 02:18:29;;;;;;;4.13;3.33;;;22.40;54.80;;;;;;5076159;28;20456;-81
2024/03/08 02:20:59;;;;;;;3.77;3.17;;;22.50;54.90;;;;;;5076647;28;20436;-82
2024/03/08 02:23:26;;;;;;;3.90;3.60;;;22.50;54.90;;;;;;5083317;28;20523;-81
2024/03/08 02:25:54;;;;;;;3.90;3.60;;;22.50;54.80;;;;;;5087557;28;20466;-82
2024/03/08 02:28:21;;;;;;;3.93;3.53;;;22.60;54.90;;;;;;5090016;28;20431;-80
2024/03/08 02:30:49;;;;;;;4.30;3.53;;;22.50;54.90;;;;;;5078001;28;20916;-88
2024/03/08 02:33:17;;;;;;;5.20;3.37;;;22.50;54.90;;;;;;5077492;28;20923;-84
2024/03/08 02:35:45;;;;;;;3.70;3.40;;;22.50;54.80;;;;;;5076973;28;20514;-81
2024/03/08 02:38:16;;;;;;;3.70;3.40;;;22.50;54.80;;;;;;5076023;28;20436;-89
2024/03/08 02:40:43;;;;;;;3.20;2.90;;;22.50;54.80;;;;;;5076231;28;20527;-82
2024/03/08 02:43:09;;;;;;;3.97;3.57;;;22.50;54.80;;;;;;5076208;28;20942;-82
2024/03/08 02:45:36;;;;;;;3.13;2.80;;;22.50;54.70;;;;;;5075981;28;20432;-81
2024/03/08 02:48:04;;;;;;;3.53;3.23;;;22.50;54.70;;;;;;5075748;28;20464;-81
2024/03/08 02:50:32;;;;;;;4.30;3.60;;;22.50;54.70;;;;;;5075603;28;20432;-81
2024/03/08 02:52:58;;;;;;;3.97;3.57;;;22.50;54.70;;;;;;5075663;28;20432;-81
2024/03/08 02:55:26;;;;;;;3.30;3.00;;;22.50;54.70;;;;;;5075465;28;20431;-81
2024/03/08 02:57:54;;;;;;;4.50;3.90;;;22.50;54.80;;;;;;5076069;28;20429;-81
2024/03/08 03:00:23;;;;;;;3.87;3.57;;;22.50;54.70;;;;;;5077906;28;20488;-82
2024/03/08 03:02:52;;;;;;;3.90;3.50;;;22.50;54.70;;;;;;5075811;28;20448;-82
2024/03/08 03:05:18;;;;;;;3.50;3.20;;;22.50;54.70;;;;;;5075257;28;20447;-81
2024/03/08 03:07:45;;;;;;;4.20;3.60;;;22.50;54.70;;;;;;5075457;28;20436;-82
2024/03/08 03:10:16;;;;;;;3.80;3.40;;;22.40;54.60;;;;;;5075291;28;20435;-82
2024/03/08 03:12:48;;;;;;;3.60;3.30;;;22.40;54.60;;;;;;5075287;28;20450;-82
2024/03/08 03:15:16;;;;;;;3.73;3.43;;;22.40;54.60;;;;;;5075373;28;20435;-81
2024/03/08 03:17:47;;;;;;;5.70;4.23;;;22.40;54.50;;;;;;5074874;28;20509;-91
2024/03/08 03:20:14;;;;;;;3.50;3.20;;;22.50;54.70;;;;;;5075106;28;20480;-82
2024/03/08 03:22:41;;;;;;;3.30;3.00;;;22.40;54.50;;;;;;5074854;28;20436;-81
2024/03/08 03:25:09;;;;;;;4.13;3.60;;;22.40;54.60;;;;;;5075256;28;20440;-81
2024/03/08 03:27:36;;;;;;;5.40;3.80;;;22.50;54.60;;;;;;5075200;28;20436;-81
2024/03/08 03:32:47;;;;;;;4.13;3.63;;;22.50;54.60;;;;;;5074804;28;20927;-85
2024/03/08 03:35:14;;;;;;;4.03;3.73;;;22.50;54.60;;;;;;5074869;28;20440;-81
2024/03/08 03:37:42;;;;;;;4.17;3.77;;;22.50;54.50;;;;;;5074760;28;20436;-81
2024/03/08 03:40:10;;;;;;;4.93;3.73;;;22.40;54.50;;;;;;5074567;28;20515;-82
2024/03/08 03:42:38;;;;;;;3.70;3.27;;;22.50;54.50;;;;;;5075169;28;20436;-81
2024/03/08 03:45:06;;;;;;;3.50;3.10;;;22.50;54.50;;;;;;5074612;28;20814;-81
2024/03/08 03:47:33;;;;;;;4.07;3.67;;;22.50;54.50;;;;;;5074301;28;20449;-81
2024/03/08 03:50:01;;;;;;;4.13;3.67;;;22.50;54.50;;;;;;5074918;28;20436;-81
2024/03/08 03:52:28;;;;;;;3.53;3.23;;;22.40;54.40;;;;;;5074429;28;20847;-82
2024/03/08 03:54:56;;;;;;;4.10;3.60;;;22.50;54.50;;;;;;5074747;28;20432;-81
2024/03/08 03:57:23;;;;;;;4.57;3.87;;;22.50;54.50;;;;;;5074721;28;20448;-81
2024/03/08 03:59:50;;;;;;;3.97;3.57;;;22.50;54.50;;;;;;5074509;28;20675;-92
2024/03/08 04:02:20;;;;;;;4.20;3.43;;;22.50;54.50;;;;;;5074322;28;20447;-84
2024/03/08 04:04:47;;;;;;;3.57;3.27;;;22.50;54.50;;;;;;5074243;28;20445;-83
2024/03/08 04:07:14;;;;;;;3.77;3.47;;;22.50;54.40;;;;;;5074129;28;20440;-81
2024/03/08 04:09:41;;;;;;;4.30;3.90;;;22.50;54.40;;;;;;5074099;28;20444;-82
2024/03/08 04:12:09;;;;;;;4.00;3.60;;;22.50;54.40;;;;;;5074519;28;20436;-82
2024/03/08 04:14:36;;;;;;;4.53;3.33;;;22.50;54.40;;;;;;5074133;28;20443;-81
2024/03/08 04:17:03;;;;;;;3.80;3.37;;;22.50;54.40;;;;;;5074027;28;20436;-81
2024/03/08 04:19:31;;;;;;;3.80;3.40;;;22.40;54.40;;;;;;5073874;28;20472;-92
2024/03/08 04:21:58;;;;;;;3.30;3.00;;;22.40;54.40;;;;;;5073607;28;20437;-82
2024/03/08 04:24:25;;;;;;;3.60;3.10;;;22.40;54.30;;;;;;5073875;28;20432;-81
2024/03/08 04:26:52;;;;;;;4.03;3.63;;;22.40;54.40;;;;;;5073690;28;20444;-89
2024/03/08 04:29:19;;;;;;;3.63;3.30;;;22.50;54.40;;;;;;5073535;28;20439;-81
2024/03/08 04:31:46;;;;;;;4.87;3.43;;;22.40;54.30;;;;;;5073850;28;20463;-84
2024/03/08 04:34:14;;;;;;;4.07;3.70;;;22.40;54.30;;;;;;5083153;28;20521;-84
2024/03/08 04:36:42;;;;;;;4.03;3.63;;;22.50;54.30;;;;;;5082446;28;20456;-81
2024/03/08 04:39:12;;;;;;;3.77;3.47;;;22.50;54.40;;;;;;5073542;28;20439;-81
2024/03/08 04:41:39;;;;;;;3.90;3.50;;;22.40;54.20;;;;;;5073523;28;20428;-80
2024/03/08 04:44:06;;;;;;;4.23;3.50;;;22.40;54.30;;;;;;5073605;28;20460;-81
2024/03/08 04:46:35;;;;;;;3.77;3.07;;;22.40;54.30;;;;;;5074213;28;20436;-81
2024/03/08 04:49:04;;;;;;;5.70;3.30;;;22.40;54.30;;;;;;5073907;28;21039;-82
2024/03/08 04:51:31;;;;;;;4.07;3.67;;;22.40;54.20;;;;;;5074150;28;20857;-82
2024/03/08 04:54:02;;;;;;;3.20;2.77;;;22.40;54.20;;;;;;5073948;28;20432;-84
2024/03/08 04:56:29;;;;;;;5.33;4.23;;;22.40;54.20;;;;;;5073897;28;20456;-81
2024/03/08 04:58:56;;;;;;;3.80;3.37;;;22.50;54.30;;;;;;5074105;28;20919;-92
2024/03/08 05:01:23;;;;;;;3.90;3.60;;;22.40;54.10;;;;;;5075120;28;20487;-92
2024/03/08 05:03:50;;;;;;;3.63;3.33;;;22.50;54.10;;;;;;5074853;28;20425;-91
2024/03/08 05:06:17;;;;;;;4.40;3.80;;;22.50;54.20;;;;;;5074755;28;20479;-93
2024/03/08 05:08:43;;;;;;;4.77;4.13;;;22.50;54.10;;;;;;5068151;28;20433;-80
2024/03/08 05:11:14;;;;;;;4.67;3.97;;;22.50;54.10;;;;;;5065346;28;20452;-80
2024/03/08 05:13:41;;;;;;;3.93;3.57;;;22.50;54.10;;;;;;5064673;28;20440;-81
2024/03/08 05:16:08;;;;;;;4.13;3.73;;;22.50;54.10;;;;;;5069326;28;20467;-81
2024/03/08 05:18:36;;;;;;;4.33;3.77;;;22.50;54.10;;;;;;5070279;28;20453;-84
2024/03/08 05:21:03;;;;;;;4.37;3.80;;;22.50;54.10;;;;;;5076656;28;20559;-81
2024/03/08 05:23:31;;;;;;;4.83;4.33;;;22.50;54.10;;;;;;5077632;28;20441;-81
2024/03/08 05:25:58;;;;;;;4.10;3.70;;;22.50;54.00;;;;;;5077468;28;20440;-82
2024/03/08 05:28:26;;;;;;;3.50;3.20;;;22.60;54.10;;;;;;5077809;28;20428;-81
2024/03/08 05:30:53;;;;;;;3.30;3.00;;;22.60;54.00;;;;;;5077684;28;20444;-82
2024/03/08 05:33:19;;;;;;;3.57;3.27;;;22.60;54.00;;;;;;5078045;28;20428;-91
2024/03/08 05:35:46;;;;;;;4.77;3.50;;;22.60;54.20;;;;;;5076992;28;20431;-80
2024/03/08 05:38:14;;;;;;;5.70;3.70;;;22.60;54.10;;;;;;5076723;28;20791;-81
2024/03/08 05:40:43;;;;;;;3.57;3.17;;;22.50;54.00;;;;;;5077221;28;20498;-81
2024/03/08 05:43:11;;;;;;;3.80;3.50;;;22.60;54.10;;;;;;5077071;28;20860;-81
2024/03/08 05:45:39;;;;;;;5.37;4.40;;;22.50;54.20;;;;;;5076916;28;20432;-89
2024/03/08 05:48:07;;;;;;;6.10;3.40;;;22.50;54.10;;;;;;5076695;28;20467;-86
2024/03/08 05:50:34;;;;;;;3.93;3.63;;;22.60;54.30;;;;;;5076535;28;20440;-81
2024/03/08 05:53:01;;;;;;;3.60;3.30;;;22.60;54.40;;;;;;5077178;28;20432;-90
2024/03/08 05:55:29;;;;;;;6.50;4.10;;;22.60;54.50;;;;;;5060556;28;20448;-81
2024/03/08 05:57:56;;;;;;;3.50;2.90;;;22.60;54.60;;;;;;5055935;28;20447;-90
2024/03/08 06:00:24;;;;;;;5.30;4.20;;;22.60;54.70;;;;;;5056957;28;21069;-87
2024/03/08 06:02:52;;;;;;;6.27;3.70;;;22.50;54.70;;;;;;5059170;28;20516;-81
2024/03/08 06:05:19;;;;;;;4.97;4.00;;;22.60;54.90;;;;;;5060376;28;20460;-81
2024/03/08 06:07:46;;;;;;;7.83;4.00;;;22.60;54.90;;;;;;5058009;28;20429;-82
2024/03/08 06:10:13;;;;;;;8.53;4.50;;;22.60;55.00;;;;;;5056809;28;20841;-81
2024/03/08 06:12:41;;;;;;;5.77;4.43;;;22.60;55.00;;;;;;5057265;28;20433;-81
2024/03/08 06:15:09;;;;;;;4.80;4.30;;;22.60;55.10;;;;;;5056650;28;20467;-91
2024/03/08 06:17:36;;;;;;;4.67;4.03;;;22.60;55.10;;;;;;5057215;28;20457;-91
2024/03/08 06:20:10;;;;;;;5.23;4.07;;;22.60;55.10;;;;;;5056767;28;20476;-83
2024/03/08 06:22:37;;;;;;;6.17;3.87;;;22.60;55.10;;;;;;5057537;28;20491;-82
2024/03/08 06:25:05;;;;;;;5.37;4.10;;;22.60;55.20;;;;;;5060031;28;20845;-82
2024/03/08 06:27:33;;;;;;;4.40;4.00;;;22.60;55.00;;;;;;5062862;28;20440;-81
2024/03/08 06:30:00;;;;;;;5.77;4.50;;;22.60;55.20;;;;;;5067863;28;20453;-82
2024/03/08 06:32:27;;;;;;;5.17;4.17;;;22.60;55.20;;;;;;5057681;28;20936;-91
2024/03/08 06:34:54;;;;;;;4.20;3.80;;;22.70;55.30;;;;;;5057646;28;20430;-88
2024/03/08 06:37:23;;;;;;;6.00;4.63;;;22.70;55.30;;;;;;5058378;28;20429;-92
2024/03/08 06:39:51;;;;;;;5.60;3.93;;;22.70;55.20;;;;;;5059347;28;20491;-90
2024/03/08 06:42:17;;;;;;;5.93;3.97;;;22.70;55.20;;;;;;5056494;28;20437;-89
2024/03/08 06:44:49;;;;;;;4.23;3.83;;;22.60;54.90;;;;;;5058094;28;20484;-82
2024/03/08 06:47:16;;;;;;;6.20;3.63;;;22.70;55.00;;;;;;5057093;28;20469;-82
2024/03/08 06:49:42;;;;;;;5.77;4.80;;;22.70;55.00;;;;;;5056687;28;20487;-87
2024/03/08 06:52:09;;;;;;;4.63;3.97;;;22.70;55.10;;;;;;5076799;28;20456;-88
2024/03/08 06:54:38;;;;;;;5.73;3.83;;;22.80;55.10;;;;;;5076948;28;20577;-87
2024/03/08 06:57:05;;;;;;;10.03;4.20;;;22.70;55.10;;;;;;5058687;28;20448;-84
2024/03/08 06:59:32;;;;;;;4.57;3.57;;;22.70;55.10;;;;;;5076606;28;20509;-85
2024/03/08 07:02:00;;;;;;;4.73;4.27;;;22.70;55.10;;;;;;5077142;28;20487;-90
2024/03/08 07:04:29;;;;;;;8.87;4.37;;;22.70;55.10;;;;;;5077007;28;20437;-82
2024/03/08 07:06:57;;;;;;;6.87;4.33;;;22.70;55.00;;;;;;5077323;28;20466;-85
2024/03/08 07:09:24;;;;;;;5.40;3.83;;;22.70;55.00;;;;;;5099656;28;20467;-83
2024/03/08 07:11:56;;;;;;;5.20;3.93;;;22.80;55.00;;;;;;5100251;28;20460;-92
2024/03/08 07:14:23;;;;;;;5.33;4.40;;;22.70;54.90;;;;;;5099475;28;20421;-86
2024/03/08 07:16:50;;;;;;;5.60;4.37;;;22.70;55.50;;;;;;5076939;28;20459;-85
2024/03/08 07:19:16;;;;;;;5.10;4.20;;;22.70;55.00;;;;;;5077032;28;20467;-86
2024/03/08 07:21:44;;;;;;;5.50;5.00;;;22.80;55.60;;;;;;5076469;28;20488;-84
2024/03/08 07:24:24;;;;;;;6.30;4.47;;;22.80;55.00;;;;;;5075838;28;20455;-85
2024/03/08 07:26:52;;;;;;;5.37;3.83;;;22.80;55.00;;;;;;5075824;28;20524;-88
2024/03/08 07:29:19;;;;;;;7.50;4.17;;;22.80;55.00;;;;;;5075526;28;20436;-91
2024/03/08 07:31:50;;;;;;;8.20;4.60;;;22.80;55.00;;;;;;5075747;28;20444;-84
2024/03/08 07:34:17;;;;;;;4.80;3.70;;;22.90;55.10;;;;;;5075378;28;20509;-91
2024/03/08 07:36:44;;;;;;;5.73;4.20;;;22.80;55.00;;;;;;5075802;28;20542;-88
2024/03/08 07:39:13;;;;;;;4.67;3.50;;;22.80;55.00;;;;;;5083676;28;20441;-91
2024/03/08 07:41:40;;;;;;;6.53;4.30;;;22.80;55.00;;;;;;5097024;28;20484;-85
2024/03/08 07:44:09;;;;;;;4.60;3.87;;;22.90;55.20;;;;;;5094285;28;20464;-83
2024/03/08 07:46:36;;;;;;;5.90;4.07;;;22.80;55.80;;;;;;5075446;28;20519;-90
2024/03/08 07:49:03;;;;;;;4.57;3.77;;;22.80;55.20;;;;;;5074978;28;20547;-88
2024/03/08 07:51:30;;;;;;;4.40;4.00;;;22.80;55.20;;;;;;5074822;28;20456;-83
2024/03/08 07:53:57;;;;;;;6.83;3.93;;;22.90;55.30;;;;;;5075192;28;20443;-83
2024/03/08 07:56:25;;;;;;;5.73;3.73;;;22.80;55.20;;;;;;5075073;28;20919;-86
2024/03/08 07:58:53;;;;;;;3.53;3.23;;;22.80;55.10;;;;;;5075641;28;20440;-90
2024/03/08 08:01:21;;;;;;;8.23;4.37;;;22.80;55.00;;;;;;5065765;28;21565;-88
2024/03/08 08:03:48;;;;;;;4.90;3.53;;;22.80;55.00;;;;;;5081420;28;20440;-88
2024/03/08 08:06:16;;;;;;;6.33;4.20;;;22.80;54.90;;;;;;5073902;28;20443;-87
2024/03/08 08:08:43;;;;;;;7.70;4.40;;;22.90;55.00;;;;;;5074857;28;20451;-87
2024/03/08 08:11:11;;;;;;;5.53;4.10;;;22.90;54.90;;;;;;5075085;28;20514;-85
2024/03/08 08:13:38;;;;;;;4.30;3.67;;;22.90;54.80;;;;;;5074162;28;20539;-81
2024/03/08 08:16:06;;;;;;;5.90;4.53;;;22.90;54.90;;;;;;5073920;28;20460;-87
2024/03/08 08:18:35;;;;;;;4.63;4.17;;;22.90;54.90;;;;;;5073968;28;20444;-89
2024/03/08 08:21:02;;;;;;;5.87;4.23;;;23.00;54.90;;;;;;5073625;28;20480;-81
2024/03/08 08:23:29;;;;;;;6.00;3.90;;;23.00;54.90;;;;;;5073264;28;20435;-86
2024/03/08 08:25:56;;;;;;;4.43;3.67;;;23.10;55.00;;;;;;5073630;28;20432;-88
2024/03/08 08:28:24;;;;;;;4.93;3.90;;;23.00;54.90;;;;;;5074177;28;20444;-89
2024/03/08 08:30:52;;;;;;;4.87;3.73;;;23.10;55.00;;;;;;5073831;28;20448;-88
2024/03/08 08:33:19;;;;;;;4.67;3.97;;;23.10;55.00;;;;;;5073768;28;20437;-87
2024/03/08 08:35:48;;;;;;;6.17;4.10;;;23.10;55.00;;;;;;5073719;28;20471;-86
2024/03/08 08:38:14;;;;;;;4.30;3.90;;;23.20;55.10;;;;;;5072459;28;20989;-86
2024/03/08 08:40:41;;;;;;;7.07;4.43;;;23.30;55.20;;;;;;5073519;28;20787;-84
2024/03/08 08:43:08;;;;;;;6.10;3.60;;;23.20;55.20;;;;;;5073080;28;20444;-83
2024/03/08 08:45:36;;;;;;;5.10;4.13;;;23.30;55.10;;;;;;5073468;28;20506;-85
2024/03/08 08:48:05;;;;;;;6.03;4.07;;;23.30;55.00;;;;;;5072677;28;20543;-84
2024/03/08 08:50:33;;;;;;;4.60;3.70;;;23.30;55.00;;;;;;5073327;28;20436;-83
2024/03/08 08:53:01;;;;;;;5.80;3.80;;;23.40;55.10;;;;;;5072864;28;21008;-81
2024/03/08 08:55:28;;;;;;;5.60;4.60;;;23.40;55.10;;;;;;5052211;28;20442;-81
2024/03/08 08:57:55;;;;;;;4.70;4.20;;;23.40;55.20;;;;;;5053069;28;20787;-81
2024/03/08 09:00:26;;;;;;;4.10;3.43;;;23.40;55.30;;;;;;5059007;28;20445;-82
2024/03/08 09:02:54;;;;;;;4.90;3.83;;;23.50;55.30;;;;;;5072203;28;20950;-84
2024/03/08 09:05:24;;;;;;;3.80;3.37;;;23.60;55.30;;;;;;5072931;28;20440;-88
2024/03/08 09:07:51;;;;;;;5.17;4.13;;;23.60;55.30;;;;;;5071567;28;20455;-83
2024/03/08 09:10:19;;;;;;;4.77;4.27;;;23.70;55.30;;;;;;5072556;28;20452;-81
2024/03/08 09:12:46;;;;;;;4.07;3.60;;;23.70;55.30;;;;;;5073660;28;20451;-87
2024/03/08 09:15:13;;;;;;;4.10;3.70;;;23.70;55.20;;;;;;5073784;28;20441;-85
2024/03/08 09:17:40;;;;;;;6.33;4.13;;;23.80;55.30;;;;;;5055317;28;20469;-90
2024/03/08 09:20:08;;;;;;;4.60;3.60;;;23.80;55.20;;;;;;5072979;28;20490;-86
2024/03/08 09:22:35;;;;;;;3.97;3.60;;;23.90;55.20;;;;;;5073674;28;20518;-90
2024/03/08 09:25:05;;;;;;;3.60;3.23;;;24.00;55.20;;;;;;5072571;28;20440;-84
2024/03/08 09:27:33;;;;;;;4.90;4.13;;;23.90;55.20;;;;;;5072927;28;20436;-85
2024/03/08 09:30:01;;;;;;;4.33;3.80;;;24.00;55.20;;;;;;5072715;28;20618;-89
2024/03/08 09:32:27;;;;;;;4.47;3.63;;;24.10;55.10;;;;;;5072826;28;20436;-87
2024/03/08 09:34:55;;;;;;;4.23;3.70;;;24.20;55.10;;;;;;5071638;28;20448;-86
2024/03/08 09:37:22;;;;;;;4.53;4.13;;;24.20;55.10;;;;;;5073045;28;20866;-89
2024/03/08 09:39:49;;;;;;;4.63;3.90;;;24.20;55.60;;;;;;5073084;28;20441;-83
2024/03/08 09:42:17;;;;;;;4.77;3.87;;;24.20;55.10;;;;;;5072549;28;20489;-86
2024/03/08 09:44:47;;;;;;;5.47;4.07;;;24.20;55.10;;;;;;5072660;28;20472;-89
2024/03/08 09:47:15;;;;;;;5.73;3.90;;;24.20;55.10;;;;;;5073518;28;20468;-83
2024/03/08 09:49:43;;;;;;;5.47;3.80;;;24.30;55.20;;;;;;5073554;28;20437;-89
2024/03/08 09:52:12;;;;;;;3.90;3.47;;;24.20;55.20;;;;;;5071341;28;20463;-82
2024/03/08 09:54:39;;;;;;;5.97;4.10;;;24.20;55.20;;;;;;5072004;28;20459;-89
2024/03/08 09:57:08;;;;;;;4.50;3.67;;;24.20;55.80;;;;;;5070452;28;20498;-90
2024/03/08 09:59:48;;;;;;;3.87;3.40;;;24.20;55.20;;;;;;5073254;28;20517;-90
2024/03/08 10:02:19;;;;;;;5.10;4.00;;;24.30;55.30;;;;;;5072808;28;20475;-92
2024/03/08 10:04:48;;;;;;;4.10;3.70;;;24.30;55.30;;;;;;5072111;28;20460;-86
2024/03/08 10:07:15;;;;;;;4.30;3.90;;;24.40;55.20;;;;;;5076685;28;20494;-90
2024/03/08 10:09:47;;;;;;;4.00;3.60;;;24.30;55.00;;;;;;5076482;28;20451;-84
2024/03/08 10:12:14;;;;;;;5.77;4.37;;;24.40;55.10;;;;;;5076742;28;20444;-91
2024/03/08 10:14:42;;;;;;;5.40;4.13;;;24.40;55.60;;;;;;5076915;28;20447;-85
2024/03/08 10:17:09;;;;;;;8.00;3.97;;;24.30;55.20;;;;;;5076961;28;20464;-85
2024/03/08 10:19:37;;;;;;;4.93;3.67;;;24.40;55.20;;;;;;5076268;28;20527;-85
2024/03/08 10:22:04;;;;;;;4.50;3.27;;;24.40;55.30;;;;;;5076113;28;20480;-85
2024/03/08 10:24:33;;;;;;;4.20;3.73;;;24.40;55.30;;;;;;5076182;28;20531;-85
2024/03/08 10:27:01;;;;;;;5.40;4.73;;;24.40;55.30;;;;;;5076211;28;20448;-85
2024/03/08 10:29:28;;;;;;;3.80;3.23;;;24.40;55.30;;;;;;5076076;28;20443;-85
2024/03/08 10:31:56;;;;;;;5.97;4.40;;;24.50;55.30;;;;;;5076324;28;20801;-85
2024/03/08 10:34:24;;;;;;;4.13;3.60;;;24.50;55.30;;;;;;5076452;28;20458;-84
2024/03/08 10:36:53;;;;;;;5.47;4.20;;;24.50;55.30;;;;;;5076774;28;20436;-86
2024/03/08 10:39:24;;;;;;;4.93;4.20;;;24.50;55.40;;;;;;5075997;28;20467;-85
2024/03/08 10:41:56;;;;;;;5.73;3.93;;;24.50;55.40;;;;;;5076431;28;20480;-86
2024/03/08 10:44:51;;;;;;;4.70;4.30;;;24.50;55.40;;;;;;5076115;28;20468;-85
2024/03/08 10:47:22;;;;;;;4.00;3.60;;;24.50;55.50;;;;;;5069595;28;20452;-85
2024/03/08 10:49:55;;;;;;;6.83;3.87;;;24.50;55.60;;;;;;5084386;28;20420;-85
2024/03/08 10:52:23;;;;;;;4.10;3.70;;;24.50;55.60;;;;;;5097989;28;20438;-85
2024/03/08 10:54:50;;;;;;;4.03;3.60;;;24.50;55.60;;;;;;5093750;28;20471;-85
2024/03/08 10:57:20;;;;;;;4.37;3.97;;;24.50;55.70;;;;;;5076271;28;20572;-85
2024/03/08 10:59:49;;;;;;;4.90;3.70;;;24.60;55.70;;;;;;5075714;28;20772;-85
2024/03/08 11:02:18;;;;;;;4.47;4.07;;;24.60;55.70;;;;;;5075854;28;20851;-84
2024/03/08 11:04:48;;;;;;;4.80;3.80;;;24.70;55.80;;;;;;5075898;28;20526;-84
2024/03/08 11:07:18;;;;;;;5.10;4.60;;;24.70;55.80;;;;;;5075612;28;20432;-85
2024/03/08 11:09:49;;;;;;;4.77;3.60;;;24.70;55.80;;;;;;5075110;28;20440;-85
2024/03/08 11:12:26;;;;;;;3.70;3.30;;;24.70;55.80;;;;;;5075476;28;20440;-85
2024/03/08 11:14:54;;;;;;;4.70;3.80;;;24.70;55.90;;;;;;5075719;28;20421;-84
2024/03/08 11:17:41;;;;;;;5.20;4.00;;;24.70;55.90;;;;;;5073994;28;20444;-85
2024/03/08 11:20:15;;;;;;;4.87;3.87;;;24.70;55.90;;;;;;5075417;28;20444;-84
2024/03/08 11:22:45;;;;;;;4.27;3.83;;;24.70;55.90;;;;;;5076072;28;20490;-84
2024/03/08 11:25:32;;;;;;;5.90;3.60;;;24.80;56.10;;;;;;5074884;28;20435;-85
2024/03/08 11:28:16;;;;;;;8.90;3.63;;;24.70;56.10;;;;;;5074674;28;20931;-85
2024/03/08 11:30:43;;;;;;;8.77;3.83;;;24.70;56.10;;;;;;5075045;28;20444;-92
2024/03/08 11:33:13;;;;;;;6.40;3.70;;;24.80;56.10;;;;;;5074865;28;20911;-86
2024/03/08 11:35:40;;;;;;;8.53;3.97;;;24.80;56.20;;;;;;5074908;28;20493;-85
2024/03/08 11:38:08;;;;;;;4.50;3.40;;;24.80;56.20;;;;;;5074489;28;20527;-85
2024/03/08 11:40:39;;;;;;;5.00;4.00;;;24.90;56.30;;;;;;5074149;28;20448;-84
2024/03/08 11:43:07;;;;;;;11.03;3.67;;;24.80;56.20;;;;;;5074476;28;20856;-85
2024/03/08 11:45:35;;;;;;;3.57;3.17;;;24.80;56.20;;;;;;5074717;28;20440;-85
2024/03/08 11:48:04;;;;;;;6.27;3.90;;;24.90;56.30;;;;;;5082862;28;20484;-85
2024/03/08 11:50:32;;;;;;;5.13;3.73;;;24.80;56.30;;;;;;5080524;28;20440;-84
2024/03/08 11:53:03;;;;;;;6.23;3.70;;;24.80;56.20;;;;;;5086571;28;20995;-86
2024/03/08 11:55:30;;;;;;;4.87;4.37;;;24.90;56.40;;;;;;5075628;28;20437;-84
2024/03/08 11:58:03;;;;;;;4.43;3.90;;;24.80;56.30;;;;;;5075635;28;20436;-85
2024/03/08 12:00:35;;;;;;;4.40;3.57;;;24.90;56.40;;;;;;5075089;28;20788;-85
2024/03/08 12:03:10;;;;;;;4.27;3.77;;;24.90;56.50;;;;;;5074590;28;20484;-83
2024/03/08 12:05:38;;;;;;;5.93;4.30;;;25.00;56.60;;;;;;5074444;28;20443;-83
2024/03/08 12:08:06;;;;;;;4.20;3.30;;;24.90;56.50;;;;;;5074324;28;20440;-88
2024/03/08 12:10:34;;;;;;;3.60;3.30;;;24.90;56.40;;;;;;5074844;28;20494;-84
2024/03/08 12:13:03;;;;;;;4.00;3.70;;;25.00;56.50;;;;;;5074478;28;20490;-89
2024/03/08 12:15:32;;;;;;;4.93;4.53;;;25.00;56.40;;;;;;5074347;28;20462;-90
2024/03/08 12:18:00;;;;;;;4.03;3.50;;;25.10;56.60;;;;;;5073966;28;21117;-84
2024/03/08 12:20:30;;;;;;;9.03;3.80;;;25.00;56.50;;;;;;5074032;28;20436;-85
2024/03/08 12:22:57;;;;;;;4.30;3.90;;;25.00;54.80;;;;;;5074655;28;20482;-84
2024/03/08 12:25:31;;;;;;;3.40;3.10;;;25.00;55.70;;;;;;5075731;28;20444;-84
2024/03/08 12:28:10;;;;;;;4.70;4.07;;;25.10;55.90;;;;;;5075389;28;20436;-85
2024/03/08 12:30:47;;;;;;;4.90;3.70;;;25.00;55.90;;;;;;5074143;28;20522;-91
2024/03/08 12:33:14;;;;;;;5.30;4.17;;;25.00;55.80;;;;;;5073956;28;20436;-85
2024/03/08 12:35:50;;;;;;;5.27;4.70;;;25.10;55.90;;;;;;5074433;28;20433;-85
2024/03/08 12:38:24;;;;;;;5.20;4.07;;;25.00;55.90;;;;;;5073935;28;20439;-85
2024/03/08 12:40:53;;;;;;;5.33;4.43;;;25.00;56.00;;;;;;5074624;28;20420;-85
2024/03/08 12:43:20;;;;;;;5.00;4.33;;;25.00;56.00;;;;;;5073710;28;20492;-84
2024/03/08 12:45:48;;;;;;;4.10;3.70;;;25.00;56.10;;;;;;5074418;28;20428;-84
2024/03/08 12:48:15;;;;;;;5.07;4.07;;;25.00;56.20;;;;;;5073567;28;20459;-85
2024/03/08 12:50:43;;;;;;;8.60;4.20;;;25.20;56.30;;;;;;5073781;28;20454;-83
2024/03/08 12:53:10;;;;;;;9.50;3.93;;;25.10;56.10;;;;;;5073674;28;20436;-91
2024/03/08 12:55:38;;;;;;;8.30;5.27;;;25.30;53.80;;;;;;5074120;28;20466;-84